Time;durP1;ratioP1;P1;durP2;ratioP2;P2;SDS_P1;SDS_P2;PMS_P1;PMS_P2;Temp;Humidity;BMP_temperature;BMP_pressure;BME280_temperature;BME280_humidity;BME280_pressure;Samples;Min_cycle;Max_cycle;Signal;HPM_P1;HPM_P2
2022/05/17 00:01:19;;;;;;;10.73;7.77;;;;;;;19.39;66.46;101458.56;5077810;28;20438;-63
2022/05/17 00:03:45;;;;;;;10.53;8.50;;;;;;;20.21;63.63;101446.56;5077720;28;20484;-62
2022/05/17 00:06:10;;;;;;;10.43;9.40;;;;;;;19.89;65.07;101447.16;5078266;28;20208;-62
2022/05/17 00:08:35;;;;;;;12.47;8.30;;;;;;;19.53;66.46;101448.59;5077586;28;20169;-63
2022/05/17 00:11:01;;;;;;;8.47;7.63;;;;;;;19.31;67.36;101455.16;5077654;28;20222;-62
2022/05/17 00:13:26;;;;;;;10.37;9.30;;;;;;;19.44;67.31;101448.75;5077921;28;20168;-62
2022/05/17 00:15:52;;;;;;;11.30;8.90;;;;;;;19.38;67.25;101451.50;5077746;28;20256;-62
2022/05/17 00:18:19;;;;;;;9.50;8.33;;;;;;;19.56;66.32;101441.53;5077688;28;20184;-62
2022/05/17 00:20:45;;;;;;;9.03;7.40;;;;;;;19.31;67.94;101441.94;5077230;28;20503;-62
2022/05/17 00:23:12;;;;;;;15.53;10.07;;;;;;;19.16;69.39;101432.47;5077578;28;20439;-62
2022/05/17 00:25:37;;;;;;;12.70;10.23;;;;;;;18.78;69.90;101432.09;5076901;28;20188;-62
2022/05/17 00:28:04;;;;;;;13.43;9.77;;;;;;;19.04;69.27;101433.53;5077948;28;20404;-62
2022/05/17 00:30:29;;;;;;;10.03;9.03;;;;;;;19.52;66.87;101425.72;5077633;28;20177;-62
2022/05/17 00:32:55;;;;;;;12.00;8.00;;;;;;;20.75;60.91;101415.50;5077619;28;20820;-62
2022/05/17 00:35:20;;;;;;;10.23;8.50;;;;;;;20.92;60.49;101417.75;5077841;28;20546;-63
2022/05/17 00:37:45;;;;;;;10.53;7.47;;;;;;;20.75;61.44;101416.34;5081214;28;20207;-63
2022/05/17 00:40:11;;;;;;;8.90;8.00;;;;;;;21.03;60.41;101423.72;5082316;28;20243;-62
2022/05/17 00:42:37;;;;;;;10.77;8.20;;;;;;;21.01;60.51;101417.56;5081269;28;20538;-62
2022/05/17 00:45:03;;;;;;;8.60;7.80;;;;;;;21.00;60.26;101406.09;5081162;28;20420;-63
2022/05/17 00:47:32;;;;;;;9.27;8.23;;;;;;;21.02;59.74;101409.56;5081038;28;20212;-64
2022/05/17 00:50:08;;;;;;;13.40;9.80;;;;;;;20.90;61.18;101430.19;5080622;28;20656;-62
2022/05/17 00:52:40;;;;;;;14.20;9.80;;;;;;;20.08;64.34;101460.94;5080265;28;20506;-62
2022/05/17 00:55:16;;;;;;;9.73;8.67;;;;;;;19.01;68.75;101458.22;5080851;28;20411;-62
2022/05/17 00:57:57;;;;;;;10.50;8.83;;;;;;;19.18;68.59;101463.25;5079958;28;20501;-62
2022/05/17 01:00:24;;;;;;;10.93;9.83;;;;;;;18.30;72.24;101469.63;5079802;28;20503;-63
2022/05/17 01:02:52;;;;;;;14.00;12.60;;;;;;;18.42;70.84;101454.56;5079768;28;20464;-61
2022/05/17 01:05:19;;;;;;;11.17;10.17;;;;;;;19.21;68.00;101461.47;5080589;28;20415;-62
2022/05/17 01:07:56;;;;;;;11.83;10.63;;;;;;;18.05;73.09;101461.09;5081098;28;20774;-63
2022/05/17 01:10:24;;;;;;;12.93;10.30;;;;;;;18.30;72.24;101442.34;5080062;28;20425;-62
2022/05/17 01:15:34;;;;;;;10.63;9.60;;;;;;;19.71;66.47;101443.91;5080560;28;20827;-62
2022/05/17 01:18:01;;;;;;;12.43;10.93;;;;;;;19.50;66.40;101443.38;5079791;28;20479;-62
2022/05/17 01:20:26;;;;;;;12.53;11.17;;;;;;;18.71;70.25;101448.88;5080201;28;20945;-62
2022/05/17 01:22:51;;;;;;;10.53;9.40;;;;;;;18.59;70.55;101449.94;5080251;28;20407;-64
2022/05/17 01:25:17;;;;;;;14.80;10.57;;;;;;;19.30;67.60;101445.47;5080530;28;20173;-64
2022/05/17 01:28:10;;;;;;;10.57;9.47;;;;;;;18.64;70.66;101432.25;5080211;28;20306;-62
2022/05/17 01:30:36;;;;;;;8.77;7.90;;;;;;;20.46;62.67;101423.13;5076406;28;20264;-61
2022/05/17 01:33:02;;;;;;;11.20;10.10;;;;;;;20.55;61.84;101415.91;5080091;28;20500;-62
2022/05/17 01:35:27;;;;;;;10.10;9.10;;;;;;;20.71;60.82;101424.44;5080141;28;20173;-62
2022/05/17 01:37:55;;;;;;;11.80;9.80;;;;;;;20.34;62.68;101424.25;5080600;28;20203;-62
2022/05/17 01:40:22;;;;;;;12.23;10.90;;;;;;;19.41;66.15;101435.59;5079985;28;20249;-63
2022/05/17 01:42:47;;;;;;;14.13;10.90;;;;;;;19.35;66.93;101436.56;5079853;28;20415;-63
2022/05/17 01:45:12;;;;;;;12.57;11.10;;;;;;;19.37;66.78;101436.53;5080453;28;20414;-63
2022/05/17 01:47:38;;;;;;;10.60;9.30;;;;;;;19.56;66.28;101441.53;5079865;28;20362;-62
2022/05/17 01:50:04;;;;;;;12.60;11.37;;;;;;;19.02;68.53;101432.66;5079367;28;20173;-62
2022/05/17 01:52:29;;;;;;;10.80;9.47;;;;;;;20.14;64.15;101431.72;5079266;28;20165;-61
2022/05/17 01:54:54;;;;;;;10.73;9.63;;;;;;;20.24;63.21;101427.09;5079860;28;20692;-62
2022/05/17 01:57:20;;;;;;;13.70;12.10;;;;;;;18.78;68.63;101442.66;5079561;28;20223;-65
2022/05/17 01:59:45;;;;;;;16.43;13.00;;;;;;;18.34;71.05;101441.44;5080187;28;20276;-65
2022/05/17 02:02:10;;;;;;;13.37;11.97;;;;;;;18.26;71.69;101438.88;5079705;28;20542;-65
2022/05/17 02:04:36;;;;;;;14.80;13.07;;;;;;;17.99;73.63;101440.91;5079584;28;20437;-65
2022/05/17 02:07:01;;;;;;;16.03;13.67;;;;;;;17.90;74.10;101437.44;5079870;28;20172;-64
2022/05/17 02:09:26;;;;;;;15.50;13.90;;;;;;;17.73;75.29;101441.13;5079408;28;20173;-64
2022/05/17 02:11:52;;;;;;;15.57;13.97;;;;;;;17.95;75.35;101447.09;5078541;28;20195;-63
2022/05/17 02:14:17;;;;;;;15.80;14.07;;;;;;;17.50;75.45;101447.47;5079781;28;20165;-64
2022/05/17 02:16:43;;;;;;;18.57;15.70;;;;;;;17.66;76.14;101455.25;5079258;28;20196;-64
2022/05/17 02:19:08;;;;;;;18.50;16.43;;;;;;;17.44;77.00;101463.34;5079217;28;20283;-65
2022/05/17 02:21:35;;;;;;;19.90;17.73;;;;;;;17.65;76.13;101466.69;5079590;28;20161;-65
2022/05/17 02:24:01;;;;;;;16.60;14.90;;;;;;;17.73;75.96;101462.22;5079207;28;20172;-65
2022/05/17 02:26:27;;;;;;;18.80;16.20;;;;;;;17.75;76.12;101451.66;5079156;28;20400;-65
2022/05/17 02:28:52;;;;;;;20.10;18.10;;;;;;;17.44;76.84;101458.06;5078614;28;20442;-64
2022/05/17 02:31:18;;;;;;;18.03;16.07;;;;;;;17.68;76.43;101457.00;5078948;28;20169;-65
2022/05/17 02:33:43;;;;;;;18.87;16.87;;;;;;;17.44;76.69;101462.44;5078897;28;20535;-64
2022/05/17 02:36:09;;;;;;;20.50;18.47;;;;;;;17.33;76.82;101459.88;5079525;28;20436;-65
2022/05/17 02:38:34;;;;;;;18.77;16.70;;;;;;;17.25;77.62;101459.97;5078823;28;20588;-65
2022/05/17 02:41:00;;;;;;;23.00;20.00;;;;;;;17.41;78.05;101468.63;5078768;28;20243;-66
2022/05/17 02:43:25;;;;;;;24.10;19.83;;;;;;;17.44;77.73;101460.72;5078970;28;20442;-66
2022/05/17 02:45:50;;;;;;;23.37;19.63;;;;;;;17.64;77.65;101454.38;5078858;28;20169;-67
2022/05/17 02:48:16;;;;;;;20.20;18.10;;;;;;;17.28;77.80;101451.16;5078815;28;20276;-66
2022/05/17 02:50:41;;;;;;;20.30;18.20;;;;;;;17.32;78.15;101455.53;5079216;28;20161;-66
2022/05/17 02:53:06;;;;;;;23.40;19.70;;;;;;;17.38;78.34;101459.88;5078581;28;20169;-67
2022/05/17 02:55:32;;;;;;;24.50;19.30;;;;;;;17.48;77.59;101462.44;5078611;28;20227;-66
2022/05/17 02:57:58;;;;;;;23.07;20.77;;;;;;;17.39;78.08;101464.25;5078835;28;20431;-64
2022/05/17 03:00:24;;;;;;;24.00;21.43;;;;;;;17.28;78.66;101466.97;5077498;28;20196;-65
2022/05/17 03:02:50;;;;;;;20.90;18.70;;;;;;;17.45;78.02;101462.44;5077607;28;20438;-66
2022/05/17 03:05:15;;;;;;;20.47;18.27;;;;;;;17.43;77.07;101469.50;5078702;28;20473;-66
2022/05/17 03:07:41;;;;;;;21.63;19.30;;;;;;;17.48;77.93;101462.44;5078485;28;20177;-64
2022/05/17 03:10:07;;;;;;;21.40;19.20;;;;;;;17.63;78.75;101466.72;5078245;28;20169;-64
2022/05/17 03:12:33;;;;;;;25.07;20.80;;;;;;;17.60;78.90;101474.66;5078823;28;20188;-63
2022/05/17 03:14:59;;;;;;;23.83;20.90;;;;;;;17.47;78.96;101473.84;5078269;28;20390;-63
2022/05/17 03:17:25;;;;;;;29.63;23.87;;;;;;;17.35;78.74;101473.94;5078230;28;20256;-64
2022/05/17 03:19:53;;;;;;;26.10;21.33;;;;;;;17.44;79.39;101480.91;5078563;28;20457;-65
2022/05/17 03:22:18;;;;;;;26.37;22.97;;;;;;;17.48;79.54;101477.34;5074510;28;20494;-65
2022/05/17 03:24:43;;;;;;;24.20;21.60;;;;;;;17.26;79.35;101474.88;5065784;28;20434;-65
2022/05/17 03:27:09;;;;;;;23.77;20.10;;;;;;;17.40;78.23;101474.78;5058527;28;20264;-64
2022/05/17 03:29:34;;;;;;;22.60;20.40;;;;;;;17.13;79.25;101479.34;5075495;28;20250;-64
2022/05/17 03:32:00;;;;;;;21.67;18.53;;;;;;;17.27;79.17;101475.75;5077502;28;20173;-65
2022/05/17 03:34:25;;;;;;;30.57;26.10;;;;;;;17.53;78.91;101475.56;5078660;28;20519;-64
2022/05/17 03:36:51;;;;;;;23.53;19.27;;;;;;;17.52;78.46;101484.34;5077441;28;20439;-64
2022/05/17 03:39:16;;;;;;;21.83;19.53;;;;;;;17.61;78.12;101483.44;5077348;28;20228;-65
2022/05/17 03:41:41;;;;;;;21.77;19.57;;;;;;;17.49;78.93;101482.66;5078633;28;20187;-64
2022/05/17 03:44:07;;;;;;;22.33;20.03;;;;;;;17.49;78.74;101484.38;5078242;28;20554;-65
2022/05/17 03:46:32;;;;;;;22.70;20.37;;;;;;;17.37;79.08;101487.97;5059258;28;20285;-64
2022/05/17 03:48:59;;;;;;;27.00;21.30;;;;;;;17.58;78.54;101496.63;5064443;28;20250;-64
2022/05/17 03:51:24;;;;;;;21.57;19.33;;;;;;;17.55;77.45;101496.63;5067220;28;20184;-63
2022/05/17 03:53:53;;;;;;;22.50;18.97;;;;;;;17.19;78.49;101494.25;5057738;28;20821;-64
2022/05/17 03:56:18;;;;;;;22.60;20.20;;;;;;;17.37;79.33;101503.78;5058283;28;20180;-63
2022/05/17 03:58:44;;;;;;;23.43;20.93;;;;;;;17.29;78.96;101495.06;5072321;28;20728;-64
2022/05/17 04:01:10;;;;;;;23.33;20.27;;;;;;;17.54;78.21;101495.78;5076291;28;20185;-65
2022/05/17 04:03:37;;;;;;;24.00;19.93;;;;;;;17.31;78.97;101493.31;5067283;28;20524;-64
2022/05/17 04:06:02;;;;;;;21.50;19.30;;;;;;;17.42;79.05;101491.47;5057868;28;20442;-65
2022/05/17 04:08:28;;;;;;;23.80;19.33;;;;;;;17.28;79.42;101488.91;5075186;28;20493;-65
2022/05/17 04:10:54;;;;;;;30.43;22.37;;;;;;;17.23;79.17;101497.75;5077869;28;20227;-65
2022/05/17 04:13:19;;;;;;;20.87;18.63;;;;;;;17.20;79.25;101495.09;5080801;28;20476;-63
2022/05/17 04:15:44;;;;;;;21.03;18.93;;;;;;;17.64;78.73;101489.56;5081959;28;20226;-62
2022/05/17 04:18:09;;;;;;;22.87;20.17;;;;;;;17.46;79.23;101487.06;5082395;28;20241;-62
2022/05/17 04:20:35;;;;;;;26.80;20.93;;;;;;;17.72;78.28;101492.13;5081571;28;20212;-62
2022/05/17 04:23:00;;;;;;;23.87;20.13;;;;;;;17.60;79.22;101494.84;5081585;28;20230;-62
2022/05/17 04:25:26;;;;;;;27.83;21.10;;;;;;;17.54;79.22;101494.91;5082186;28;20476;-62
2022/05/17 04:27:52;;;;;;;23.37;20.87;;;;;;;17.29;79.98;101488.03;5081581;28;20172;-63
2022/05/17 04:30:18;;;;;;;27.43;20.33;;;;;;;17.53;79.46;101488.75;5081372;28;20390;-63
2022/05/17 04:32:44;;;;;;;24.70;21.07;;;;;;;17.93;78.69;101488.47;5081124;28;20437;-61
2022/05/17 04:35:11;;;;;;;22.60;20.20;;;;;;;17.66;78.10;101492.19;5080664;28;20415;-62
2022/05/17 04:37:36;;;;;;;22.17;19.83;;;;;;;17.61;79.43;101492.19;5080686;28;20169;-62
2022/05/17 04:40:04;;;;;;;25.67;22.80;;;;;;;17.48;79.48;101495.81;5082064;28;20457;-61
2022/05/17 04:42:30;;;;;;;24.90;22.20;;;;;;;17.48;79.51;101491.44;5081164;28;20177;-61
2022/05/17 04:44:55;;;;;;;22.90;20.50;;;;;;;17.39;80.67;101499.41;5081238;28;20434;-62
2022/05/17 04:47:20;;;;;;;23.87;21.37;;;;;;;17.62;80.03;101498.38;5081206;28;20220;-62
2022/05/17 04:49:46;;;;;;;23.90;20.10;;;;;;;17.80;79.66;101499.97;5080874;28;20230;-63
2022/05/17 04:52:11;;;;;;;22.10;19.70;;;;;;;17.57;79.45;101505.44;5081198;28;20233;-62
2022/05/17 04:54:36;;;;;;;23.40;19.47;;;;;;;17.87;78.56;101509.56;5081003;28;20181;-63
2022/05/17 04:57:04;;;;;;;22.23;19.87;;;;;;;17.85;79.34;101512.22;5081109;28;20173;-62
2022/05/17 04:59:29;;;;;;;23.37;20.17;;;;;;;17.68;79.52;101507.09;5081464;28;20192;-62
2022/05/17 05:01:54;;;;;;;23.60;21.10;;;;;;;17.47;80.26;101509.91;5080702;28;20431;-63
2022/05/17 05:04:20;;;;;;;22.30;19.90;;;;;;;17.92;79.67;101510.44;5080583;28;20226;-63
2022/05/17 05:06:45;;;;;;;22.73;20.43;;;;;;;17.93;78.72;101514.84;5078706;28;20184;-63
2022/05/17 05:09:11;;;;;;;22.40;19.90;;;;;;;17.98;nan;101522.72;5069985;28;20665;-61
2022/05/17 05:11:37;;;;;;;23.80;21.30;;;;;;;17.95;78.66;101523.59;5080598;28;20481;-62
2022/05/17 05:14:02;;;;;;;22.63;20.30;;;;;;;17.78;79.07;101523.72;5065198;28;20526;-61
2022/05/17 05:16:27;;;;;;;20.77;18.67;;;;;;;17.92;79.22;101528.06;5060482;28;20523;-63
2022/05/17 05:18:52;;;;;;;23.13;20.57;;;;;;;17.85;79.32;101530.69;5060530;28;20280;-62
2022/05/17 05:21:19;;;;;;;21.17;19.07;;;;;;;17.94;78.68;101540.34;5065696;28;20182;-62
2022/05/17 05:23:45;;;;;;;21.60;19.43;;;;;;;17.68;79.76;101532.59;5072339;28;20451;-60
2022/05/17 05:26:11;;;;;;;26.40;22.30;;;;;;;17.78;80.33;101539.56;5079858;28;20405;-62
2022/05/17 05:28:37;;;;;;;23.40;20.90;;;;;;;17.74;80.60;101532.56;5068678;28;20177;-62
2022/05/17 05:31:03;;;;;;;22.60;20.27;;;;;;;17.89;80.24;101534.19;5071121;28;20711;-62
2022/05/17 05:33:30;;;;;;;21.70;19.40;;;;;;;18.08;79.29;101529.66;5065092;28;20406;-61
2022/05/17 05:35:55;;;;;;;22.47;20.07;;;;;;;17.90;80.12;101535.06;5067629;28;20418;-62
2022/05/17 05:38:21;;;;;;;24.60;21.63;;;;;;;18.02;79.66;101529.72;5079861;28;20465;-62
2022/05/17 05:40:47;;;;;;;23.47;20.80;;;;;;;17.85;80.24;101532.47;5079486;28;20180;-62
2022/05/17 05:43:12;;;;;;;23.97;21.47;;;;;;;17.55;81.33;101528.28;5080244;28;20212;-62
2022/05/17 05:45:38;;;;;;;26.07;22.80;;;;;;;17.85;80.48;101535.09;5080133;28;20188;-62
2022/05/17 05:48:03;;;;;;;25.50;22.77;;;;;;;17.84;80.45;101534.22;5073766;28;20499;-62
2022/05/17 05:50:29;;;;;;;24.83;21.13;;;;;;;18.09;79.85;101536.69;5072370;28;20535;-62
2022/05/17 05:53:08;;;;;;;23.43;20.70;;;;;;;18.10;79.41;101537.56;5076462;28;20177;-61
2022/05/17 05:55:35;;;;;;;25.77;21.97;;;;;;;17.98;80.63;101543.81;5068572;28;20295;-62
2022/05/17 05:58:01;;;;;;;28.30;23.20;;;;;;;18.10;80.10;101543.69;5065498;28;20482;-61
2022/05/17 06:00:27;;;;;;;27.40;23.53;;;;;;;17.94;80.54;101539.44;5067256;28;20854;-63
2022/05/17 06:02:53;;;;;;;26.70;22.93;;;;;;;17.76;81.23;101545.72;5059699;28;20483;-63
2022/05/17 06:05:18;;;;;;;24.23;21.10;;;;;;;17.99;79.41;101546.44;5077588;28;20454;-62
2022/05/17 06:07:44;;;;;;;27.07;22.67;;;;;;;17.98;79.58;101549.09;5070676;28;20201;-62
2022/05/17 06:10:10;;;;;;;25.03;22.33;;;;;;;18.05;80.80;101556.09;5076530;28;20184;-62
2022/05/17 06:12:35;;;;;;;25.37;21.50;;;;;;;18.02;79.69;101561.38;5079447;28;20563;-62
2022/05/17 06:15:01;;;;;;;27.43;24.60;;;;;;;18.05;79.89;101556.09;5076598;28;20450;-63
2022/05/17 06:17:29;;;;;;;25.10;22.57;;;;;;;18.10;80.15;101556.91;5079724;28;20230;-62
2022/05/17 06:19:55;;;;;;;24.83;22.20;;;;;;;17.97;80.28;101565.84;5079650;28;20197;-62
2022/05/17 06:22:21;;;;;;;28.00;24.20;;;;;;;17.88;81.31;101568.50;5071378;28;20472;-61
2022/05/17 06:24:46;;;;;;;22.87;20.53;;;;;;;18.11;80.24;101568.34;5073777;28;20929;-63
2022/05/17 06:27:12;;;;;;;21.67;19.50;;;;;;;18.01;80.10;101570.19;5069025;28;20573;-62
2022/05/17 06:29:37;;;;;;;22.27;19.90;;;;;;;18.12;79.91;101572.75;5074267;28;20173;-65
2022/05/17 06:32:03;;;;;;;24.07;21.50;;;;;;;18.10;80.28;101572.72;5076819;28;20192;-63
2022/05/17 06:34:28;;;;;;;25.20;22.00;;;;;;;17.86;81.35;101565.88;5075764;28;20205;-63
2022/05/17 06:36:53;;;;;;;22.57;20.27;;;;;;;18.48;79.01;101560.06;5077393;28;20196;-62
2022/05/17 06:39:19;;;;;;;23.80;20.77;;;;;;;17.96;80.17;101572.00;5073896;28;20430;-63
2022/05/17 06:41:44;;;;;;;23.57;21.13;;;;;;;18.58;78.42;101572.31;5078494;28;20184;-65
2022/05/17 06:44:10;;;;;;;23.00;20.50;;;;;;;18.40;79.01;101578.66;5074810;28;20192;-63
2022/05/17 06:46:35;;;;;;;23.20;20.80;;;;;;;18.23;80.44;101575.28;5077427;28;20589;-64
2022/05/17 06:49:01;;;;;;;22.67;20.07;;;;;;;18.18;80.38;101584.13;5077072;28;20280;-64
2022/05/17 06:51:26;;;;;;;22.90;19.17;;;;;;;18.53;78.20;101574.09;5076993;28;20263;-63
2022/05/17 06:53:52;;;;;;;23.60;21.10;;;;;;;18.60;78.16;101574.94;5076116;28;20264;-63
2022/05/17 06:56:17;;;;;;;22.83;19.60;;;;;;;18.11;80.05;101581.53;5076353;28;20196;-63
2022/05/17 06:58:42;;;;;;;22.97;19.60;;;;;;;18.43;78.93;101585.63;5077444;28;20254;-64
2022/05/17 07:01:08;;;;;;;27.57;20.60;;;;;;;18.47;79.20;101588.25;5077051;28;20259;-64
2022/05/17 07:03:34;;;;;;;25.83;20.47;;;;;;;18.42;78.89;101587.41;5065765;28;20187;-66
2022/05/17 07:05:59;;;;;;;26.87;21.57;;;;;;;18.61;78.83;101581.97;5056679;28;20576;-65
2022/05/17 07:08:24;;;;;;;27.77;20.10;;;;;;;18.44;78.01;101588.28;5070090;28;20265;-64
2022/05/17 07:13:34;;;;;;;43.90;31.00;;;;;;;18.20;80.16;101596.41;5076805;28;20318;-64
2022/05/17 07:15:59;;;;;;;32.80;25.70;;;;;;;18.46;78.87;101596.19;5077989;28;20446;-63
2022/05/17 07:18:26;;;;;;;37.10;26.43;;;;;;;18.55;77.78;101596.09;5065847;28;20564;-63
2022/05/17 07:20:52;;;;;;;32.83;24.07;;;;;;;18.67;77.70;101598.63;5070687;28;20572;-65
2022/05/17 07:23:19;;;;;;;34.70;27.67;;;;;;;18.81;76.31;101590.53;5077573;28;20430;-63
2022/05/17 07:25:45;;;;;;;37.80;31.00;;;;;;;19.01;76.26;101589.47;5078194;28;20261;-63
2022/05/17 07:28:16;;;;;;;30.00;22.80;;;;;;;19.35;75.52;101599.63;5076994;28;20563;-63
2022/05/17 07:30:42;;;;;;;31.20;22.97;;;;;;;19.47;74.45;101591.53;5077537;28;20434;-63
2022/05/17 07:33:08;;;;;;;27.30;21.70;;;;;;;19.42;74.48;101593.34;5077166;28;20422;-64
2022/05/17 07:35:33;;;;;;;32.67;22.13;;;;;;;19.42;73.52;101603.06;5076708;28;20185;-63
2022/05/17 07:37:58;;;;;;;26.27;21.60;;;;;;;19.51;74.03;101603.81;5077688;28;20184;-63
2022/05/17 07:40:24;;;;;;;23.07;20.50;;;;;;;19.52;72.77;101600.28;5077951;28;20224;-63
2022/05/17 07:42:50;;;;;;;27.53;20.90;;;;;;;19.48;73.39;101603.88;5077686;28;20200;-63
2022/05/17 07:45:16;;;;;;;26.23;20.60;;;;;;;19.78;72.06;101606.97;5077487;28;20200;-64
2022/05/17 07:47:41;;;;;;;23.70;19.80;;;;;;;19.55;72.86;101611.69;5081459;28;20556;-64
2022/05/17 07:50:07;;;;;;;30.00;24.13;;;;;;;19.98;72.40;101609.31;5083437;28;20191;-64
2022/05/17 07:52:33;;;;;;;26.43;22.47;;;;;;;20.30;69.85;101610.56;5080947;28;20211;-64
2022/05/17 07:54:59;;;;;;;25.27;22.17;;;;;;;21.31;67.73;101611.34;5081454;28;20486;-64
2022/05/17 07:57:25;;;;;;;27.53;22.40;;;;;;;21.41;66.85;101607.59;5081714;28;20168;-63
2022/05/17 07:59:51;;;;;;;28.43;18.93;;;;;;;21.63;65.35;101610.66;5081403;28;20472;-64
2022/05/17 08:02:16;;;;;;;20.10;17.70;;;;;;;21.18;66.89;101616.03;5081513;28;20279;-66
2022/05/17 08:04:42;;;;;;;23.23;18.60;;;;;;;21.32;66.27;101613.09;5080619;28;20423;-65
2022/05/17 08:07:08;;;;;;;19.40;16.97;;;;;;;21.47;66.41;101617.19;5084569;28;20173;-63
2022/05/17 08:09:35;;;;;;;18.20;16.40;;;;;;;22.00;64.32;101611.56;5090474;28;20223;-64
2022/05/17 08:12:00;;;;;;;19.17;16.87;;;;;;;21.89;63.86;101619.78;5083847;28;20485;-64
2022/05/17 08:14:26;;;;;;;15.97;14.47;;;;;;;21.44;64.59;101614.59;5082588;28;20419;-63
2022/05/17 08:16:51;;;;;;;15.03;13.53;;;;;;;21.22;66.26;101623.03;5079412;28;20197;-63
2022/05/17 08:19:17;;;;;;;15.50;14.00;;;;;;;21.13;66.36;101629.38;5069927;28;20477;-63
2022/05/17 08:21:43;;;;;;;14.10;12.70;;;;;;;20.76;67.28;101626.59;5084232;28;20589;-63
2022/05/17 08:24:08;;;;;;;13.47;12.27;;;;;;;21.43;64.63;101632.28;5082952;28;20176;-63
2022/05/17 08:29:17;;;;;;;13.87;12.47;;;;;;;20.92;67.35;101635.09;5067598;28;20211;-64
2022/05/17 08:33:14;;;;;;;13.17;11.80;;;;;;;21.34;64.85;101633.38;5083869;28;20864;-64
2022/05/17 08:34:28;;;;;;;14.60;13.20;;;;;;;21.52;64.55;101631.22;5083102;28;20192;-64
2022/05/17 08:36:54;;;;;;;13.13;11.83;;;;;;;20.30;66.70;101634.41;5083516;28;20423;-62
2022/05/17 08:39:19;;;;;;;13.10;11.70;;;;;;;21.31;64.47;101643.16;5084121;28;20249;-63
2022/05/17 08:41:50;;;;;;;12.07;10.87;;;;;;;20.79;65.19;101645.06;5077264;28;20258;-64
2022/05/17 08:44:20;;;;;;;15.87;14.27;;;;;;;21.60;63.69;101639.06;5080112;28;20181;-64
2022/05/17 08:47:05;;;;;;;16.33;14.63;;;;;;;21.07;64.74;101655.13;5077979;28;20470;-65
2022/05/17 08:49:53;;;;;;;14.57;13.17;;;;;;;21.27;63.79;101652.09;5051695;28;20437;-69
2022/05/17 08:52:21;;;;;;;12.47;11.27;;;;;;;21.33;62.89;101655.50;5079374;28;20757;-70
2022/05/17 08:54:55;;;;;;;11.47;10.43;;;;;;;21.46;63.74;101663.19;5077736;28;20513;-69
2022/05/17 08:57:36;;;;;;;11.53;10.27;;;;;;;24.55;54.04;101650.34;5079101;28;20483;-69
2022/05/17 09:00:42;;;;;;;9.27;8.40;;;;;;;23.90;55.49;101650.75;5078453;28;20482;-69
2022/05/17 09:03:23;;;;;;;9.80;8.90;;;;;;;22.83;58.26;101657.31;5055961;28;20674;-69
2022/05/17 09:05:59;;;;;;;8.37;7.57;;;;;;;22.01;58.99;101661.13;5077605;28;20487;-69
2022/05/17 09:08:35;;;;;;;7.63;6.93;;;;;;;23.74;53.65;101653.84;5067101;28;20442;-69
2022/05/17 09:11:07;;;;;;;8.17;7.37;;;;;;;23.48;54.26;101644.88;5079218;28;20427;-70
2022/05/17 09:13:56;;;;;;;8.03;7.33;;;;;;;23.39;54.09;101655.78;5060580;28;20428;-70
2022/05/17 09:16:23;;;;;;;8.93;6.20;;;;;;;23.84;52.79;101657.09;5073762;28;20512;-71
2022/05/17 09:18:49;;;;;;;7.40;6.80;;;;;;;23.52;54.48;101657.16;5073856;28;20451;-70
2022/05/17 09:21:27;;;;;;;7.60;7.00;;;;;;;23.15;54.77;101663.56;5071324;28;20695;-70
2022/05/17 09:23:53;;;;;;;7.23;6.67;;;;;;;23.92;52.99;101657.75;5070319;28;20483;-69
2022/05/17 09:26:19;;;;;;;7.47;6.87;;;;;;;23.31;54.24;101661.34;5071565;28;20419;-68
2022/05/17 09:29:03;;;;;;;7.53;6.93;;;;;;;23.60;54.66;101656.94;5078513;28;20169;-70
2022/05/17 09:31:32;;;;;;;7.80;7.10;;;;;;;23.68;53.86;101667.38;5079833;28;20180;-70
2022/05/17 09:34:00;;;;;;;7.47;6.77;;;;;;;23.35;55.28;101670.09;5070014;28;20424;-70
2022/05/17 09:36:32;;;;;;;7.00;6.40;;;;;;;23.96;53.15;101663.84;5072070;28;20423;-69
2022/05/17 09:38:59;;;;;;;7.47;6.87;;;;;;;23.20;54.04;101672.31;5075527;28;20540;-72
2022/05/17 09:41:26;;;;;;;8.03;7.20;;;;;;;23.40;53.58;101667.31;5079161;28;20471;-71
2022/05/17 09:43:55;;;;;;;7.33;6.77;;;;;;;23.76;52.99;101662.69;5074435;28;20435;-71
2022/05/17 09:46:30;;;;;;;5.20;4.80;;;;;;;24.61;50.02;101665.25;5075688;28;20423;-69
2022/05/17 09:55:11;;;;;;;5.10;4.70;;;;;;;24.12;50.82;101666.91;5072326;28;20447;-74
2022/05/17 09:57:37;;;;;;;6.80;6.20;;;;;;;23.69;52.78;101669.09;5074913;28;20732;-71
2022/05/17 10:00:16;;;;;;;8.67;5.40;;;;;;;23.87;52.11;101671.19;5077484;28;20466;-72
2022/05/17 10:02:48;;;;;;;6.10;5.60;;;;;;;24.79;49.87;101668.22;5078083;28;20176;-73
2022/05/17 10:05:19;;;;;;;5.60;5.20;;;;;;;25.85;47.03;101666.09;5059235;28;20438;-72
2022/05/17 10:07:54;;;;;;;5.40;4.90;;;;;;;25.14;48.83;101671.41;5059016;28;20412;-73
2022/05/17 10:10:32;;;;;;;5.90;5.40;;;;;;;24.01;51.65;101676.09;5058626;28;20415;-74
2022/05/17 10:13:05;;;;;;;5.47;5.00;;;;;;;24.40;50.32;101672.19;5069884;28;20430;-71
2022/05/17 10:15:32;;;;;;;6.47;5.97;;;;;;;24.14;51.07;101671.28;5079015;28;20800;-70
2022/05/17 10:18:02;;;;;;;6.07;5.57;;;;;;;24.44;50.30;101675.66;5079236;28;20494;-71
2022/05/17 10:20:48;;;;;;;5.97;5.40;;;;;;;24.81;49.57;101669.06;5078476;28;20459;-71
2022/05/17 10:23:35;;;;;;;5.33;4.87;;;;;;;23.26;52.18;101684.56;5077809;28;20431;-71
2022/05/17 10:26:06;;;;;;;5.10;4.70;;;;;;;24.14;50.85;101670.38;5078237;28;20414;-71
2022/05/17 10:28:52;;;;;;;6.77;6.07;;;;;;;22.94;53.88;101683.63;5079080;28;20454;-71
2022/05/17 10:31:24;;;;;;;7.37;6.70;;;;;;;22.88;54.66;101689.97;5058172;28;20510;-63
2022/05/17 10:34:12;;;;;;;6.60;6.10;;;;;;;22.81;54.61;101691.06;5058241;28;20412;-64
2022/05/17 10:36:44;;;;;;;6.67;6.13;;;;;;;22.80;54.97;101689.31;5058180;28;20443;-64
2022/05/17 10:39:25;;;;;;;6.27;5.77;;;;;;;22.53;55.09;101690.91;5058227;28;20474;-65
2022/05/17 10:41:50;;;;;;;6.10;5.60;;;;;;;22.57;54.91;101686.38;5058690;28;20423;-63
2022/05/17 10:44:19;;;;;;;6.03;5.53;;;;;;;22.55;55.54;101691.72;5058921;28;20416;-64
2022/05/17 10:46:48;;;;;;;7.70;7.10;;;;;;;22.03;57.77;101699.16;5070493;28;20220;-63
2022/05/17 10:49:37;;;;;;;7.70;7.00;;;;;;;22.06;56.90;101692.91;5078794;28;20411;-64
2022/05/17 10:52:13;;;;;;;6.37;5.77;;;;;;;21.99;57.93;101700.13;5078037;28;20416;-65
2022/05/17 10:55:17;;;;;;;6.30;5.80;;;;;;;22.13;56.60;101700.66;5078019;28;20476;-66
2022/05/17 10:58:12;;;;;;;7.03;6.50;;;;;;;21.84;58.16;101696.03;5077978;28;20418;-64
2022/05/17 11:00:44;;;;;;;7.37;6.67;;;;;;;21.95;58.06;101698.44;5077568;28;20482;-65
2022/05/17 11:03:21;;;;;;;7.57;6.97;;;;;;;21.88;58.03;101695.06;5077348;28;20419;-65
2022/05/17 11:05:56;;;;;;;8.07;7.37;;;;;;;21.73;59.96;101704.25;5078323;28;20399;-64
2022/05/17 11:08:43;;;;;;;8.30;7.50;;;;;;;21.74;59.82;101708.63;5078495;28;20474;-63
2022/05/17 11:11:40;;;;;;;7.90;7.20;;;;;;;22.03;58.13;101712.44;5078612;28;20403;-63
2022/05/17 11:14:21;;;;;;;6.70;6.10;;;;;;;21.61;59.50;101707.13;5078371;28;20411;-63
2022/05/17 11:17:20;;;;;;;6.90;6.30;;;;;;;21.65;58.81;101703.50;5078085;28;20473;-64
2022/05/17 11:20:04;;;;;;;7.93;7.03;;;;;;;21.86;59.01;101704.81;5077533;28;20490;-63
2022/05/17 11:22:53;;;;;;;7.70;7.00;;;;;;;21.62;59.21;101706.22;5077277;28;20797;-63
2022/05/17 11:25:29;;;;;;;7.67;7.07;;;;;;;21.53;60.00;101709.97;5077432;28;20799;-63
2022/05/17 11:27:54;;;;;;;8.10;7.40;;;;;;;21.82;58.64;101708.47;5077539;28;20411;-64
2022/05/17 11:30:38;;;;;;;8.00;7.30;;;;;;;21.05;61.63;101704.69;5078514;28;20477;-64
2022/05/17 11:33:09;;;;;;;8.57;7.80;;;;;;;21.48;60.59;101710.00;5078202;28;20173;-63
2022/05/17 11:35:37;;;;;;;7.07;6.47;;;;;;;21.43;59.99;101709.22;5078171;28;20429;-64